sensor_id;sensor_type;location;lat;lon;timestamp;pressure;altitude;pressure_sealevel;temperature;humidity
40592;BME280;26301;42.832;23.918;2023-05-10T00:01:33;93428.47;;;8.81;100.00
40592;BME280;26301;42.832;23.918;2023-05-10T00:03:59;93425.34;;;8.79;100.00
40592;BME280;26301;42.832;23.918;2023-05-10T00:06:25;93428.28;;;8.83;100.00
40592;BME280;26301;42.832;23.918;2023-05-10T00:08:51;93430.63;;;8.84;100.00
40592;BME280;26301;42.832;23.918;2023-05-10T00:11:16;93443.00;;;8.94;100.00
40592;BME280;26301;42.832;23.918;2023-05-10T00:13:42;93444.16;;;8.98;100.00
40592;BME280;26301;42.832;23.918;2023-05-10T00:16:08;93432.91;;;8.92;100.00
40592;BME280;26301;42.832;23.918;2023-05-10T00:18:33;93407.75;;;8.76;100.00
40592;BME280;26301;42.832;23.918;2023-05-10T00:20:59;93444.94;;;8.99;100.00
40592;BME280;26301;42.832;23.918;2023-05-10T00:23:25;93438.22;;;8.98;100.00
40592;BME280;26301;42.832;23.918;2023-05-10T00:25:50;93434.50;;;8.93;100.00
40592;BME280;26301;42.832;23.918;2023-05-10T00:28:16;93435.63;;;8.98;100.00
40592;BME280;26301;42.832;23.918;2023-05-10T00:30:42;93419.69;;;8.89;100.00
40592;BME280;26301;42.832;23.918;2023-05-10T00:33:07;93419.69;;;8.89;100.00
40592;BME280;26301;42.832;23.918;2023-05-10T00:35:33;93434.84;;;8.97;100.00
40592;BME280;26301;42.832;23.918;2023-05-10T00:37:59;93408.81;;;8.87;100.00
40592;BME280;26301;42.832;23.918;2023-05-10T00:40:24;93427.13;;;8.97;100.00
40592;BME280;26301;42.832;23.918;2023-05-10T00:42:50;93432.63;;;9.01;100.00
40592;BME280;26301;42.832;23.918;2023-05-10T00:45:15;93410.50;;;8.93;100.00
40592;BME280;26301;42.832;23.918;2023-05-10T00:47:41;93416.75;;;8.85;100.00
40592;BME280;26301;42.832;23.918;2023-05-10T00:50:07;93424.19;;;8.93;100.00
40592;BME280;26301;42.832;23.918;2023-05-10T00:52:34;93426.78;;;8.93;100.00
40592;BME280;26301;42.832;23.918;2023-05-10T00:54:59;93416.75;;;8.85;100.00
40592;BME280;26301;42.832;23.918;2023-05-10T00:57:26;93424.84;;;8.89;100.00
40592;BME280;26301;42.832;23.918;2023-05-10T00:59:51;93433.06;;;8.98;100.00
40592;BME280;26301;42.832;23.918;2023-05-10T01:02:17;93417.31;;;8.87;100.00
40592;BME280;26301;42.832;23.918;2023-05-10T01:04:43;93416.53;;;8.87;100.00
40592;BME280;26301;42.832;23.918;2023-05-10T01:07:09;93410.03;;;8.84;100.00
40592;BME280;26301;42.832;23.918;2023-05-10T01:09:34;93395.88;;;8.75;100.00
40592;BME280;26301;42.832;23.918;2023-05-10T01:12:01;93414.03;;;8.80;100.00
40592;BME280;26301;42.832;23.918;2023-05-10T01:14:27;93414.28;;;8.79;100.00
40592;BME280;26301;42.832;23.918;2023-05-10T01:16:53;93388.91;;;8.64;100.00
40592;BME280;26301;42.832;23.918;2023-05-10T01:19:23;93402.91;;;8.68;100.00
40592;BME280;26301;42.832;23.918;2023-05-10T01:26:58;93411.13;;;8.77;100.00
40592;BME280;26301;42.832;23.918;2023-05-10T01:35:26;93396.75;;;8.69;100.00
40592;BME280;26301;42.832;23.918;2023-05-10T01:38:02;93365.66;;;8.52;100.00
40592;BME280;26301;42.832;23.918;2023-05-10T01:40:40;93406.97;;;8.76;100.00
40592;BME280;26301;42.832;23.918;2023-05-10T01:43:11;93401.25;;;8.74;100.00
40592;BME280;26301;42.832;23.918;2023-05-10T01:46:20;93409.31;;;8.77;100.00
40592;BME280;26301;42.832;23.918;2023-05-10T01:48:42;93394.16;;;8.69;100.00
40592;BME280;26301;42.832;23.918;2023-05-10T01:51:17;93394.66;;;8.78;100.00
40592;BME280;26301;42.832;23.918;2023-05-10T01:53:46;93395.44;;;8.78;100.00
40592;BME280;26301;42.832;23.918;2023-05-10T01:56:14;93373.88;;;8.61;100.00
40592;BME280;26301;42.832;23.918;2023-05-10T01:58:43;93401.59;;;8.77;100.00
40592;BME280;26301;42.832;23.918;2023-05-10T02:01:11;93394.53;;;8.73;100.00
40592;BME280;26301;42.832;23.918;2023-05-10T02:03:38;93381.59;;;8.61;100.00
40592;BME280;26301;42.832;23.918;2023-05-10T02:06:05;93375.22;;;8.63;100.00
40592;BME280;26301;42.832;23.918;2023-05-10T02:08:34;93402.03;;;8.74;100.00
40592;BME280;26301;42.832;23.918;2023-05-10T02:11:02;93403.59;;;8.75;100.00
40592;BME280;26301;42.832;23.918;2023-05-10T02:13:29;93381.59;;;8.61;100.00
40592;BME280;26301;42.832;23.918;2023-05-10T02:15:57;93382.53;;;8.66;100.00
40592;BME280;26301;42.832;23.918;2023-05-10T02:18:23;93390.72;;;8.75;100.00
40592;BME280;26301;42.832;23.918;2023-05-10T02:20:52;93398.44;;;8.75;100.00
40592;BME280;26301;42.832;23.918;2023-05-10T02:23:20;93402.69;;;8.69;100.00
40592;BME280;26301;42.832;23.918;2023-05-10T02:25:47;93388.75;;;8.59;100.00
40592;BME280;26301;42.832;23.918;2023-05-10T02:28:14;93396.31;;;8.72;100.00
40592;BME280;26301;42.832;23.918;2023-05-10T02:30:41;93383.75;;;8.64;100.00
40592;BME280;26301;42.832;23.918;2023-05-10T02:33:08;93380.25;;;8.58;100.00
40592;BME280;26301;42.832;23.918;2023-05-10T02:35:34;93398.34;;;8.70;100.00
40592;BME280;26301;42.832;23.918;2023-05-10T02:38:00;93392.69;;;8.61;100.00
40592;BME280;26301;42.832;23.918;2023-05-10T02:40:27;93393.66;;;8.60;100.00
40592;BME280;26301;42.832;23.918;2023-05-10T02:42:55;93387.75;;;8.60;100.00
40592;BME280;26301;42.832;23.918;2023-05-10T02:45:24;93380.06;;;8.72;100.00
40592;BME280;26301;42.832;23.918;2023-05-10T02:47:52;93368.69;;;8.49;100.00
40592;BME280;26301;42.832;23.918;2023-05-10T02:50:18;93374.38;;;8.51;100.00
40592;BME280;26301;42.832;23.918;2023-05-10T02:52:47;93384.63;;;8.58;100.00
40592;BME280;26301;42.832;23.918;2023-05-10T02:55:16;93394.34;;;8.56;100.00
40592;BME280;26301;42.832;23.918;2023-05-10T02:58:00;93353.41;;;8.29;100.00
40592;BME280;26301;42.832;23.918;2023-05-10T03:00:27;93398.56;;;8.50;100.00
40592;BME280;26301;42.832;23.918;2023-05-10T03:02:53;93393.47;;;8.43;100.00
40592;BME280;26301;42.832;23.918;2023-05-10T03:05:19;93365.59;;;8.22;100.00
40592;BME280;26301;42.832;23.918;2023-05-10T03:07:45;93373.66;;;8.25;100.00
40592;BME280;26301;42.832;23.918;2023-05-10T03:10:12;93396.25;;;8.42;100.00
40592;BME280;26301;42.832;23.918;2023-05-10T03:15:31;93383.38;;;8.42;100.00
40592;BME280;26301;42.832;23.918;2023-05-10T03:18:32;93399.41;;;8.44;100.00
40592;BME280;26301;42.832;23.918;2023-05-10T03:21:02;93379.81;;;8.24;100.00
40592;BME280;26301;42.832;23.918;2023-05-10T03:23:34;93392.94;;;8.35;100.00
40592;BME280;26301;42.832;23.918;2023-05-10T03:26:01;93397.84;;;8.43;99.46
40592;BME280;26301;42.832;23.918;2023-05-10T03:28:28;93395.91;;;8.38;99.49
40592;BME280;26301;42.832;23.918;2023-05-10T03:30:55;93381.56;;;8.24;100.00
40592;BME280;26301;42.832;23.918;2023-05-10T03:33:21;93410.38;;;8.39;100.00
40592;BME280;26301;42.832;23.918;2023-05-10T03:35:47;93386.28;;;8.27;100.00
40592;BME280;26301;42.832;23.918;2023-05-10T03:38:13;93405.59;;;8.36;100.00
40592;BME280;26301;42.832;23.918;2023-05-10T03:40:39;93375.28;;;8.20;100.00
40592;BME280;26301;42.832;23.918;2023-05-10T03:43:04;93378.03;;;8.25;100.00
40592;BME280;26301;42.832;23.918;2023-05-10T03:45:30;93404.41;;;8.39;100.00
40592;BME280;26301;42.832;23.918;2023-05-10T03:47:57;93384.38;;;8.22;100.00
40592;BME280;26301;42.832;23.918;2023-05-10T03:50:22;93383.16;;;8.25;96.83
40592;BME280;26301;42.832;23.918;2023-05-10T03:52:48;93403.44;;;8.33;94.02
40592;BME280;26301;42.832;23.918;2023-05-10T03:55:14;93391.94;;;8.17;94.72
40592;BME280;26301;42.832;23.918;2023-05-10T03:57:41;93410.31;;;8.21;94.83
40592;BME280;26301;42.832;23.918;2023-05-10T04:00:08;93384.00;;;8.00;94.83
40592;BME280;26301;42.832;23.918;2023-05-10T04:02:34;93412.25;;;8.25;92.80
40592;BME280;26301;42.832;23.918;2023-05-10T04:04:59;93414.16;;;8.12;93.12
40592;BME280;26301;42.832;23.918;2023-05-10T04:07:25;93386.63;;;7.94;95.16
40592;BME280;26301;42.832;23.918;2023-05-10T04:09:51;93409.66;;;8.07;95.58
40592;BME280;26301;42.832;23.918;2023-05-10T04:12:17;93403.78;;;8.00;95.88
40592;BME280;26301;42.832;23.918;2023-05-10T04:14:43;93406.31;;;8.07;97.12
40592;BME280;26301;42.832;23.918;2023-05-10T04:17:08;93420.47;;;8.16;98.34
40592;BME280;26301;42.832;23.918;2023-05-10T04:19:34;93421.59;;;8.20;99.09
40592;BME280;26301;42.832;23.918;2023-05-10T04:22:00;93419.38;;;8.23;99.82
40592;BME280;26301;42.832;23.918;2023-05-10T04:24:27;93401.44;;;8.17;98.95
40592;BME280;26301;42.832;23.918;2023-05-10T04:26:54;93396.72;;;8.14;98.65
40592;BME280;26301;42.832;23.918;2023-05-10T04:29:19;93416.75;;;8.30;98.55
40592;BME280;26301;42.832;23.918;2023-05-10T04:31:45;93414.31;;;8.35;98.79
40592;BME280;26301;42.832;23.918;2023-05-10T04:34:11;93389.88;;;8.26;98.88
40592;BME280;26301;42.832;23.918;2023-05-10T04:36:36;93414.66;;;8.45;99.45
40592;BME280;26301;42.832;23.918;2023-05-10T04:39:04;93407.13;;;8.44;99.97
40592;BME280;26301;42.832;23.918;2023-05-10T04:41:30;93386.41;;;8.39;97.94
40592;BME280;26301;42.832;23.918;2023-05-10T04:43:55;93414.34;;;8.54;98.25
40592;BME280;26301;42.832;23.918;2023-05-10T04:46:21;93389.91;;;8.44;96.89
40592;BME280;26301;42.832;23.918;2023-05-10T04:48:47;93368.44;;;8.32;94.28
40592;BME280;26301;42.832;23.918;2023-05-10T04:51:12;93406.19;;;8.57;95.42
40592;BME280;26301;42.832;23.918;2023-05-10T04:53:38;93403.41;;;8.58;95.35
40592;BME280;26301;42.832;23.918;2023-05-10T04:56:04;93403.53;;;8.63;91.79
40592;BME280;26301;42.832;23.918;2023-05-10T04:58:29;93385.81;;;8.55;91.28
40592;BME280;26301;42.832;23.918;2023-05-10T05:00:55;93384.97;;;8.61;91.00
40592;BME280;26301;42.832;23.918;2023-05-10T05:03:20;93408.19;;;8.73;91.09
40592;BME280;26301;42.832;23.918;2023-05-10T05:05:47;93401.78;;;8.64;89.95
40592;BME280;26301;42.832;23.918;2023-05-10T05:08:13;93406.84;;;8.70;89.87
40592;BME280;26301;42.832;23.918;2023-05-10T05:10:38;93415.59;;;8.81;88.75
40592;BME280;26301;42.832;23.918;2023-05-10T05:13:04;93404.59;;;8.74;88.35
40592;BME280;26301;42.832;23.918;2023-05-10T05:15:29;93410.94;;;8.90;87.76
40592;BME280;26301;42.832;23.918;2023-05-10T05:17:55;93404.13;;;8.96;88.68
40592;BME280;26301;42.832;23.918;2023-05-10T05:20:21;93388.56;;;8.90;90.30
40592;BME280;26301;42.832;23.918;2023-05-10T05:22:46;93415.41;;;9.13;90.80
40592;BME280;26301;42.832;23.918;2023-05-10T05:25:12;93425.63;;;9.20;89.18
40592;BME280;26301;42.832;23.918;2023-05-10T05:27:38;93417.69;;;9.21;87.74
40592;BME280;26301;42.832;23.918;2023-05-10T05:30:04;93391.22;;;9.14;86.11
40592;BME280;26301;42.832;23.918;2023-05-10T05:32:29;93406.81;;;9.19;84.79
40592;BME280;26301;42.832;23.918;2023-05-10T05:34:55;93413.34;;;9.33;85.31
40592;BME280;26301;42.832;23.918;2023-05-10T05:37:22;93401.00;;;9.35;85.88
40592;BME280;26301;42.832;23.918;2023-05-10T05:39:48;93404.59;;;9.34;84.31
40592;BME280;26301;42.832;23.918;2023-05-10T05:42:14;93414.91;;;9.34;82.65
40592;BME280;26301;42.832;23.918;2023-05-10T05:44:41;93413.47;;;9.38;83.41
40592;BME280;26301;42.832;23.918;2023-05-10T05:47:07;93407.44;;;9.45;80.55
40592;BME280;26301;42.832;23.918;2023-05-10T05:49:33;93416.06;;;9.50;81.01
40592;BME280;26301;42.832;23.918;2023-05-10T05:51:59;93404.75;;;9.39;79.51
40592;BME280;26301;42.832;23.918;2023-05-10T05:54:26;93406.75;;;9.37;78.19
40592;BME280;26301;42.832;23.918;2023-05-10T05:56:57;93422.56;;;9.53;80.11
40592;BME280;26301;42.832;23.918;2023-05-10T05:59:23;93431.69;;;9.67;80.42
40592;BME280;26301;42.832;23.918;2023-05-10T06:01:49;93425.75;;;9.67;82.37
40592;BME280;26301;42.832;23.918;2023-05-10T06:04:16;93420.94;;;9.70;81.53
40592;BME280;26301;42.832;23.918;2023-05-10T06:06:41;93373.69;;;9.46;78.23
40592;BME280;26301;42.832;23.918;2023-05-10T06:09:08;93417.25;;;9.78;80.02
40592;BME280;26301;42.832;23.918;2023-05-10T06:11:34;93426.00;;;9.89;78.00
40592;BME280;26301;42.832;23.918;2023-05-10T06:14:00;93421.63;;;9.89;78.48
40592;BME280;26301;42.832;23.918;2023-05-10T06:16:25;93433.09;;;9.93;74.67
40592;BME280;26301;42.832;23.918;2023-05-10T06:18:51;93438.78;;;9.95;76.00
40592;BME280;26301;42.832;23.918;2023-05-10T06:21:17;93448.00;;;10.03;77.26
40592;BME280;26301;42.832;23.918;2023-05-10T06:23:42;93439.69;;;10.01;78.83
40592;BME280;26301;42.832;23.918;2023-05-10T06:26:09;93435.22;;;9.96;78.57
40592;BME280;26301;42.832;23.918;2023-05-10T06:28:35;93425.81;;;10.02;76.83
40592;BME280;26301;42.832;23.918;2023-05-10T06:31:03;93443.19;;;10.18;71.01
40592;BME280;26301;42.832;23.918;2023-05-10T06:33:28;93428.72;;;10.05;70.23
40592;BME280;26301;42.832;23.918;2023-05-10T06:35:54;93430.84;;;10.08;74.34
40592;BME280;26301;42.832;23.918;2023-05-10T06:38:20;93433.88;;;10.17;71.94
40592;BME280;26301;42.832;23.918;2023-05-10T06:40:45;93455.53;;;10.40;70.82
40592;BME280;26301;42.832;23.918;2023-05-10T06:43:10;93445.22;;;10.40;71.21
40592;BME280;26301;42.832;23.918;2023-05-10T06:45:36;93422.75;;;10.40;68.70
40592;BME280;26301;42.832;23.918;2023-05-10T06:48:02;93431.97;;;10.48;64.40
40592;BME280;26301;42.832;23.918;2023-05-10T06:50:27;93432.63;;;10.55;63.67
40592;BME280;26301;42.832;23.918;2023-05-10T06:52:53;93458.56;;;10.72;67.90
40592;BME280;26301;42.832;23.918;2023-05-10T06:55:19;93453.81;;;10.81;68.81
40592;BME280;26301;42.832;23.918;2023-05-10T06:57:45;93430.91;;;10.72;68.36
40592;BME280;26301;42.832;23.918;2023-05-10T07:00:10;93454.13;;;10.96;62.57
40592;BME280;26301;42.832;23.918;2023-05-10T07:02:36;93456.81;;;11.01;64.84
40592;BME280;26301;42.832;23.918;2023-05-10T07:05:02;93445.75;;;11.06;62.96
40592;BME280;26301;42.832;23.918;2023-05-10T07:07:28;93443.31;;;10.99;62.90
40592;BME280;26301;42.832;23.918;2023-05-10T07:09:54;93437.91;;;11.01;65.43
40592;BME280;26301;42.832;23.918;2023-05-10T07:12:21;93408.59;;;10.95;64.53
40592;BME280;26301;42.832;23.918;2023-05-10T07:14:47;93439.00;;;11.33;61.45
40592;BME280;26301;42.832;23.918;2023-05-10T07:17:12;93409.09;;;11.09;60.71
40592;BME280;26301;42.832;23.918;2023-05-10T07:19:38;93445.84;;;11.39;59.42
40592;BME280;26301;42.832;23.918;2023-05-10T07:22:03;93424.53;;;11.32;57.82
40592;BME280;26301;42.832;23.918;2023-05-10T07:24:29;93437.81;;;11.24;63.41
40592;BME280;26301;42.832;23.918;2023-05-10T07:26:56;93446.88;;;11.38;60.53
40592;BME280;26301;42.832;23.918;2023-05-10T07:29:22;93445.31;;;11.54;65.26
40592;BME280;26301;42.832;23.918;2023-05-10T07:31:47;93450.53;;;11.71;59.87
40592;BME280;26301;42.832;23.918;2023-05-10T07:34:13;93455.34;;;11.79;58.19
40592;BME280;26301;42.832;23.918;2023-05-10T07:36:38;93454.78;;;11.94;56.82
40592;BME280;26301;42.832;23.918;2023-05-10T07:39:04;93458.97;;;11.95;53.26
40592;BME280;26301;42.832;23.918;2023-05-10T07:41:30;93452.69;;;11.91;56.56
40592;BME280;26301;42.832;23.918;2023-05-10T07:43:56;93464.22;;;12.00;52.52
40592;BME280;26301;42.832;23.918;2023-05-10T07:46:21;93446.25;;;11.94;50.99
40592;BME280;26301;42.832;23.918;2023-05-10T07:48:47;93459.13;;;12.05;51.35
40592;BME280;26301;42.832;23.918;2023-05-10T07:51:12;93466.19;;;12.10;50.08
40592;BME280;26301;42.832;23.918;2023-05-10T07:53:38;93462.81;;;12.09;52.90
40592;BME280;26301;42.832;23.918;2023-05-10T07:56:25;93471.28;;;12.22;57.74
40592;BME280;26301;42.832;23.918;2023-05-10T07:58:53;93462.00;;;12.26;45.03
40592;BME280;26301;42.832;23.918;2023-05-10T08:01:19;93471.69;;;12.13;47.24
40592;BME280;26301;42.832;23.918;2023-05-10T08:03:45;93453.06;;;12.00;57.87
40592;BME280;26301;42.832;23.918;2023-05-10T08:06:11;93458.91;;;11.78;45.79
40592;BME280;26301;42.832;23.918;2023-05-10T08:08:37;93460.25;;;11.81;49.13
40592;BME280;26301;42.832;23.918;2023-05-10T08:11:03;93463.97;;;11.85;52.99
40592;BME280;26301;42.832;23.918;2023-05-10T08:13:29;93448.88;;;11.82;53.40
40592;BME280;26301;42.832;23.918;2023-05-10T08:15:56;93459.44;;;11.92;62.23
40592;BME280;26301;42.832;23.918;2023-05-10T08:18:22;93448.84;;;11.94;58.07
40592;BME280;26301;42.832;23.918;2023-05-10T08:20:47;93471.50;;;12.03;51.17
40592;BME280;26301;42.832;23.918;2023-05-10T08:23:13;93476.00;;;12.08;50.88
40592;BME280;26301;42.832;23.918;2023-05-10T08:25:39;93481.78;;;12.15;52.31
40592;BME280;26301;42.832;23.918;2023-05-10T08:28:05;93480.78;;;12.16;48.79
40592;BME280;26301;42.832;23.918;2023-05-10T08:30:31;93468.00;;;12.09;50.39
40592;BME280;26301;42.832;23.918;2023-05-10T08:32:56;93476.22;;;12.23;57.17
40592;BME280;26301;42.832;23.918;2023-05-10T08:35:22;93455.59;;;12.11;47.31
40592;BME280;26301;42.832;23.918;2023-05-10T08:37:48;93475.03;;;12.31;48.90
40592;BME280;26301;42.832;23.918;2023-05-10T08:40:14;93471.59;;;12.25;50.28
40592;BME280;26301;42.832;23.918;2023-05-10T08:42:50;93476.38;;;12.17;45.70
40592;BME280;26301;42.832;23.918;2023-05-10T08:45:17;93465.88;;;11.89;44.62
40592;BME280;26301;42.832;23.918;2023-05-10T08:47:44;93474.53;;;11.83;45.79
40592;BME280;26301;42.832;23.918;2023-05-10T08:50:11;93485.22;;;11.87;48.13
40592;BME280;26301;42.832;23.918;2023-05-10T08:52:38;93461.09;;;11.70;46.46
40592;BME280;26301;42.832;23.918;2023-05-10T08:55:06;93481.28;;;11.84;47.05
40592;BME280;26301;42.832;23.918;2023-05-10T08:57:32;93476.03;;;11.79;48.44
40592;BME280;26301;42.832;23.918;2023-05-10T09:00:00;93478.75;;;11.73;46.16
40592;BME280;26301;42.832;23.918;2023-05-10T09:02:26;93474.53;;;11.83;46.68
40592;BME280;26301;42.832;23.918;2023-05-10T09:04:52;93483.81;;;11.79;46.74
40592;BME280;26301;42.832;23.918;2023-05-10T09:07:18;93486.03;;;11.76;47.38
40592;BME280;26301;42.832;23.918;2023-05-10T09:09:45;93463.28;;;11.61;46.50
40592;BME280;26301;42.832;23.918;2023-05-10T09:12:12;93454.69;;;11.55;46.13
40592;BME280;26301;42.832;23.918;2023-05-10T09:14:38;93471.22;;;11.71;47.39
40592;BME280;26301;42.832;23.918;2023-05-10T09:17:04;93471.50;;;11.58;48.69
40592;BME280;26301;42.832;23.918;2023-05-10T09:19:30;93458.91;;;11.61;46.77
40592;BME280;26301;42.832;23.918;2023-05-10T09:21:56;93480.06;;;11.87;45.74
40592;BME280;26301;42.832;23.918;2023-05-10T09:24:25;93476.09;;;11.84;47.78
40592;BME280;26301;42.832;23.918;2023-05-10T09:26:51;93481.88;;;11.86;48.90
40592;BME280;26301;42.832;23.918;2023-05-10T09:29:16;93469.72;;;11.87;46.00
40592;BME280;26301;42.832;23.918;2023-05-10T09:31:50;93478.56;;;11.91;45.22
40592;BME280;26301;42.832;23.918;2023-05-10T09:34:18;93465.31;;;11.87;45.45
40592;BME280;26301;42.832;23.918;2023-05-10T09:36:55;93475.91;;;12.03;45.29
40592;BME280;26301;42.832;23.918;2023-05-10T09:39:30;93424.06;;;11.98;46.25
40592;BME280;26301;42.832;23.918;2023-05-10T09:41:56;93470.72;;;12.20;47.10
40592;BME280;26301;42.832;23.918;2023-05-10T09:44:21;93467.38;;;12.19;50.12
40592;BME280;26301;42.832;23.918;2023-05-10T09:46:50;93464.69;;;12.31;45.88
40592;BME280;26301;42.832;23.918;2023-05-10T09:49:20;93447.03;;;12.28;47.07
40592;BME280;26301;42.832;23.918;2023-05-10T09:51:45;93468.56;;;12.50;44.93
40592;BME280;26301;42.832;23.918;2023-05-10T09:54:14;93462.91;;;12.53;46.51
40592;BME280;26301;42.832;23.918;2023-05-10T09:56:41;93463.59;;;12.66;46.54
40592;BME280;26301;42.832;23.918;2023-05-10T09:59:11;93458.78;;;12.74;46.06
40592;BME280;26301;42.832;23.918;2023-05-10T10:01:37;93447.53;;;12.64;46.13
40592;BME280;26301;42.832;23.918;2023-05-10T10:04:07;93464.44;;;12.71;46.21
40592;BME280;26301;42.832;23.918;2023-05-10T10:06:38;93460.81;;;12.72;48.55
40592;BME280;26301;42.832;23.918;2023-05-10T10:09:07;93431.00;;;12.70;46.53
40592;BME280;26301;42.832;23.918;2023-05-10T10:11:37;93458.13;;;12.84;47.36
40592;BME280;26301;42.832;23.918;2023-05-10T10:14:04;93438.63;;;12.81;45.95
40592;BME280;26301;42.832;23.918;2023-05-10T10:16:30;93454.94;;;12.99;46.98
40592;BME280;26301;42.832;23.918;2023-05-10T10:18:56;93452.63;;;13.24;46.02
40592;BME280;26301;42.832;23.918;2023-05-10T10:21:22;93457.66;;;13.31;46.32
40592;BME280;26301;42.832;23.918;2023-05-10T10:23:49;93438.66;;;13.25;47.81
40592;BME280;26301;42.832;23.918;2023-05-10T10:26:16;93419.66;;;13.47;46.33
40592;BME280;26301;42.832;23.918;2023-05-10T10:28:56;93430.16;;;13.57;46.94
40592;BME280;26301;42.832;23.918;2023-05-10T10:31:48;93441.41;;;13.68;45.44
40592;BME280;26301;42.832;23.918;2023-05-10T10:34:27;93437.97;;;13.62;45.53
40592;BME280;26301;42.832;23.918;2023-05-10T10:36:54;93442.59;;;13.55;45.14
40592;BME280;26301;42.832;23.918;2023-05-10T10:39:21;93439.44;;;13.53;46.69
40592;BME280;26301;42.832;23.918;2023-05-10T10:41:54;93424.91;;;13.52;46.06
40592;BME280;26301;42.832;23.918;2023-05-10T10:55:10;93427.91;;;13.71;45.86
40592;BME280;26301;42.832;23.918;2023-05-10T10:57:52;93442.16;;;13.68;47.95
40592;BME280;26301;42.832;23.918;2023-05-10T11:07:55;93440.81;;;13.61;47.33
40592;BME280;26301;42.832;23.918;2023-05-10T11:10:21;93424.84;;;13.47;44.48
40592;BME280;26301;42.832;23.918;2023-05-10T11:13:00;93414.75;;;13.50;46.76
40592;BME280;26301;42.832;23.918;2023-05-10T11:15:37;93435.72;;;13.71;48.35
40592;BME280;26301;42.832;23.918;2023-05-10T11:18:28;93445.25;;;13.65;46.90
40592;BME280;26301;42.832;23.918;2023-05-10T11:21:01;93421.06;;;13.60;47.85
40592;BME280;26301;42.832;23.918;2023-05-10T11:26:09;93411.44;;;13.55;48.84
40592;BME280;26301;42.832;23.918;2023-05-10T11:28:41;93430.50;;;13.66;48.75
40592;BME280;26301;42.832;23.918;2023-05-10T11:31:07;93436.00;;;13.75;50.14
40592;BME280;26301;42.832;23.918;2023-05-10T11:33:52;93414.38;;;13.64;50.21
40592;BME280;26301;42.832;23.918;2023-05-10T11:36:20;93432.88;;;13.72;46.60
40592;BME280;26301;42.832;23.918;2023-05-10T11:38:49;93413.28;;;13.60;47.96
40592;BME280;26301;42.832;23.918;2023-05-10T11:41:18;93438.28;;;13.66;46.79
40592;BME280;26301;42.832;23.918;2023-05-10T11:43:50;93415.88;;;13.60;47.76
40592;BME280;26301;42.832;23.918;2023-05-10T11:46:17;93424.00;;;13.68;48.67
40592;BME280;26301;42.832;23.918;2023-05-10T11:48:44;93414.59;;;13.62;47.71
40592;BME280;26301;42.832;23.918;2023-05-10T11:51:11;93411.19;;;13.57;49.65
40592;BME280;26301;42.832;23.918;2023-05-10T11:53:36;93438.84;;;13.73;49.25
40592;BME280;26301;42.832;23.918;2023-05-10T11:56:07;93435.56;;;13.83;48.52
40592;BME280;26301;42.832;23.918;2023-05-10T11:58:34;93431.84;;;13.73;48.10
40592;BME280;26301;42.832;23.918;2023-05-10T12:01:00;93434.03;;;13.60;48.57
40592;BME280;26301;42.832;23.918;2023-05-10T12:03:27;93420.16;;;13.44;50.32
40592;BME280;26301;42.832;23.918;2023-05-10T12:05:53;93436.97;;;13.68;49.09
40592;BME280;26301;42.832;23.918;2023-05-10T12:08:24;93432.78;;;13.62;49.53
40592;BME280;26301;42.832;23.918;2023-05-10T12:10:50;93431.28;;;13.66;48.92
40592;BME280;26301;42.832;23.918;2023-05-10T12:13:16;93437.81;;;13.74;48.28
40592;BME280;26301;42.832;23.918;2023-05-10T12:15:43;93409.72;;;13.66;49.27
40592;BME280;26301;42.832;23.918;2023-05-10T12:18:10;93422.38;;;13.57;47.37
40592;BME280;26301;42.832;23.918;2023-05-10T12:20:36;93427.63;;;13.67;49.54
40592;BME280;26301;42.832;23.918;2023-05-10T12:23:02;93422.56;;;13.83;47.47
40592;BME280;26301;42.832;23.918;2023-05-10T12:25:38;93417.22;;;13.94;47.74
40592;BME280;26301;42.832;23.918;2023-05-10T12:28:08;93413.84;;;13.94;46.18
40592;BME280;26301;42.832;23.918;2023-05-10T12:30:35;93389.88;;;13.87;47.90
40592;BME280;26301;42.832;23.918;2023-05-10T12:33:07;93405.81;;;14.01;48.29
40592;BME280;26301;42.832;23.918;2023-05-10T12:35:44;93413.56;;;13.90;47.15
40592;BME280;26301;42.832;23.918;2023-05-10T12:38:28;93387.44;;;13.70;48.17
40592;BME280;26301;42.832;23.918;2023-05-10T12:41:01;93405.16;;;13.78;48.98
40592;BME280;26301;42.832;23.918;2023-05-10T12:43:27;93395.06;;;13.82;50.08
40592;BME280;26301;42.832;23.918;2023-05-10T12:45:53;93389.59;;;13.83;47.40
40592;BME280;26301;42.832;23.918;2023-05-10T12:48:19;93387.75;;;13.79;46.14
40592;BME280;26301;42.832;23.918;2023-05-10T12:50:45;93394.78;;;13.78;47.50
40592;BME280;26301;42.832;23.918;2023-05-10T12:53:11;93360.59;;;13.54;48.17
40592;BME280;26301;42.832;23.918;2023-05-10T12:55:37;93393.97;;;13.78;48.05
40592;BME280;26301;42.832;23.918;2023-05-10T12:58:02;93391.31;;;13.67;47.12
40592;BME280;26301;42.832;23.918;2023-05-10T13:00:28;93387.88;;;13.62;48.46
40592;BME280;26301;42.832;23.918;2023-05-10T13:02:53;93377.72;;;13.55;48.72
40592;BME280;26301;42.832;23.918;2023-05-10T13:05:19;93377.81;;;13.70;48.72
40592;BME280;26301;42.832;23.918;2023-05-10T13:07:45;93368.56;;;13.80;48.81
40592;BME280;26301;42.832;23.918;2023-05-10T13:10:13;93377.66;;;13.82;49.33
40592;BME280;26301;42.832;23.918;2023-05-10T13:12:38;93350.81;;;13.71;48.65
40592;BME280;26301;42.832;23.918;2023-05-10T13:15:05;93371.47;;;13.88;49.09
40592;BME280;26301;42.832;23.918;2023-05-10T13:17:30;93369.41;;;13.90;49.59
40592;BME280;26301;42.832;23.918;2023-05-10T13:19:56;93365.81;;;13.97;49.12
40592;BME280;26301;42.832;23.918;2023-05-10T13:22:21;93358.66;;;14.14;48.09
40592;BME280;26301;42.832;23.918;2023-05-10T13:24:47;93344.91;;;14.18;47.52
40592;BME280;26301;42.832;23.918;2023-05-10T13:27:12;93343.13;;;14.24;48.39
40592;BME280;26301;42.832;23.918;2023-05-10T13:29:38;93356.16;;;14.34;49.27